createdAt,value
2022-08-03T00:02:24.584Z,20.83
2022-08-03T00:07:27.748Z,20.79
2022-08-03T00:12:32.001Z,20.66
2022-08-03T00:17:52.935Z,20.62
2022-08-03T00:22:56.898Z,20.56
2022-08-03T00:28:01.184Z,20.54
2022-08-03T00:33:04.352Z,20.53
2022-08-03T00:38:07.354Z,20.52
2022-08-03T00:43:11.690Z,20.52
2022-08-03T00:48:29.549Z,20.52
2022-08-03T00:53:37.391Z,20.46
2022-08-03T00:58:41.651Z,20.36
2022-08-03T01:03:44.436Z,20.28
2022-08-03T01:09:02.570Z,20.16
2022-08-03T01:14:18.179Z,20.03
2022-08-03T01:19:37.897Z,20.14
2022-08-03T01:24:51.864Z,20.04
2022-08-03T01:30:02.742Z,20.02
2022-08-03T01:35:12.638Z,20.02
2022-08-03T01:40:17.181Z,20.04
2022-08-03T01:45:23.249Z,19.97
2022-08-03T01:50:30.084Z,19.89
2022-08-03T01:55:35.324Z,19.80
2022-08-03T02:00:40.681Z,19.76
2022-08-03T02:05:46.140Z,19.66
2022-08-03T02:10:50.727Z,19.49
2022-08-03T02:15:56.832Z,19.41
2022-08-03T02:21:01.784Z,19.28
2022-08-03T02:26:16.817Z,19.27
2022-08-03T02:31:25.479Z,19.24
2022-08-03T02:36:31.787Z,19.23
2022-08-03T02:41:42.979Z,19.16
2022-08-03T02:46:49.869Z,19.05
2022-08-03T02:51:54.381Z,19.13
2022-08-03T02:56:58.959Z,18.99
2022-08-03T03:02:03.942Z,18.96
2022-08-03T03:07:06.980Z,18.89
2022-08-03T03:12:13.910Z,18.83
2022-08-03T03:17:19.048Z,18.97
2022-08-03T03:22:22.961Z,18.97
2022-08-03T03:27:26.437Z,18.96
2022-08-03T03:32:31.711Z,18.93
2022-08-03T03:37:34.761Z,18.85
2022-08-03T03:42:38.738Z,18.82
2022-08-03T03:47:43.198Z,18.77
2022-08-03T03:52:46.141Z,18.71
2022-08-03T03:57:48.913Z,18.65
2022-08-03T04:02:53.093Z,18.64
2022-08-03T04:08:17.595Z,18.61
2022-08-03T04:13:22.943Z,18.64
2022-08-03T04:18:29.666Z,18.58
2022-08-03T04:23:36.754Z,18.67
2022-08-03T04:28:42.309Z,18.74
2022-08-03T04:33:47.453Z,18.85
2022-08-03T04:38:57.040Z,18.98
2022-08-03T04:44:01.885Z,19.08
2022-08-03T04:49:07.115Z,19.13
2022-08-03T04:54:13.455Z,19.22
2022-08-03T04:59:17.797Z,19.22
2022-08-03T05:04:23.040Z,19.18
2022-08-03T05:09:50.143Z,19.26
2022-08-03T05:14:48.611Z,19.31
2022-08-03T05:19:52.805Z,19.50
2022-08-03T05:24:55.629Z,19.68
2022-08-03T05:30:29.721Z,19.82
2022-08-03T05:36:00.449Z,19.99
2022-08-03T05:40:57.611Z,20.14
2022-08-03T05:46:12.836Z,20.33
2022-08-03T05:51:17.457Z,20.32
2022-08-03T05:56:23.502Z,20.58
2022-08-03T06:01:26.292Z,20.55
2022-08-03T06:06:32.426Z,20.81
2022-08-03T06:11:35.409Z,21.04
2022-08-03T06:16:38.211Z,21.36
2022-08-03T06:21:42.500Z,21.71
2022-08-03T06:26:46.066Z,22.05
2022-08-03T06:31:49.026Z,22.24
2022-08-03T06:36:58.641Z,22.44
2022-08-03T06:42:04.924Z,22.73
2022-08-03T06:47:09.672Z,22.97
2022-08-03T06:52:13.860Z,23.18
2022-08-03T06:57:36.650Z,23.35
2022-08-03T07:02:39.765Z,23.46
2022-08-03T07:07:44.526Z,23.64
2022-08-03T07:12:56.032Z,23.89
2022-08-03T07:17:59.839Z,23.96
2022-08-03T07:23:03.988Z,24.32
2022-08-03T07:28:06.928Z,24.64
2022-08-03T07:33:09.786Z,25.13
2022-08-03T07:38:14.008Z,24.79
2022-08-03T07:43:17.654Z,25.43
2022-08-03T07:48:20.505Z,26.59
2022-08-03T07:53:25.885Z,27.15
2022-08-03T07:58:28.726Z,26.99
2022-08-03T08:03:52.952Z,26.88
2022-08-03T08:08:59.529Z,26.95
2022-08-03T08:14:03.866Z,27.36
2022-08-03T08:19:06.772Z,27.30
2022-08-03T08:24:13.312Z,26.97
2022-08-03T08:29:23.132Z,27.42
2022-08-03T08:34:25.898Z,27.31
2022-08-03T08:39:30.096Z,27.71
2022-08-03T08:44:32.881Z,28.15
2022-08-03T08:49:37.757Z,28.57
2022-08-03T08:54:45.249Z,28.42
2022-08-03T08:59:49.734Z,28.51
2022-08-03T09:04:54.988Z,29.02
2022-08-03T09:10:10.745Z,29.15
2022-08-03T09:15:18.686Z,29.15
2022-08-03T09:20:22.871Z,29.62
2022-08-03T09:25:32.670Z,29.72
2022-08-03T09:30:35.962Z,29.21
2022-08-03T09:35:58.818Z,29.72
2022-08-03T09:41:03.078Z,30.20
2022-08-03T09:46:07.584Z,30.28
2022-08-03T09:52:27.310Z,30.81
2022-08-03T09:56:42.639Z,29.96
2022-08-03T10:01:45.577Z,29.92
2022-08-03T10:07:05.496Z,30.05
2022-08-03T10:12:11.367Z,30.75
2022-08-03T10:17:14.780Z,29.24
2022-08-03T10:22:20.737Z,30.30
2022-08-03T10:27:26.039Z,31.66
2022-08-03T10:32:31.725Z,31.72
2022-08-03T10:37:42.051Z,30.80
2022-08-03T10:43:08.949Z,30.63
2022-08-03T10:48:12.350Z,31.63
2022-08-03T10:53:16.683Z,32.14
2022-08-03T10:58:57.239Z,31.35
2022-08-03T11:04:17.364Z,32.12
2022-08-03T11:09:20.154Z,31.60
2022-08-03T11:14:24.339Z,30.90
2022-08-03T11:19:57.390Z,32.35
2022-08-03T11:25:01.800Z,32.69
2022-08-03T11:30:09.527Z,31.91
2022-08-03T11:35:14.739Z,32.34
2022-08-03T11:40:39.981Z,31.14
2022-08-03T11:45:58.090Z,31.95
2022-08-03T11:51:01.426Z,31.38
2022-08-03T11:56:04.468Z,30.85
2022-08-03T12:01:22.632Z,33.13
2022-08-03T12:06:25.497Z,34.42
2022-08-03T12:11:30.586Z,32.68
2022-08-03T12:16:34.785Z,33.57
2022-08-03T12:21:55.823Z,32.36
2022-08-03T12:27:00.239Z,33.58
2022-08-03T12:32:04.778Z,34.41
2022-08-03T12:37:21.729Z,33.20
2022-08-03T12:42:34.950Z,34.38
2022-08-03T12:47:56.625Z,34.76
2022-08-03T12:53:00.881Z,33.27
2022-08-03T12:58:04.617Z,34.61
2022-08-03T13:03:41.833Z,34.89
2022-08-03T13:08:31.805Z,35.18
2022-08-03T13:13:41.196Z,35.20
2022-08-03T13:18:46.584Z,34.35
2022-08-03T13:23:50.868Z,36.56
2022-08-03T13:28:53.645Z,35.90
2022-08-03T13:33:57.796Z,36.42
2022-08-03T13:39:00.607Z,34.94
2022-08-03T13:44:26.668Z,36.53
2022-08-03T13:49:30.078Z,36.71
2022-08-03T13:54:33.922Z,35.76
2022-08-03T13:59:36.692Z,35.07
2022-08-03T14:04:40.837Z,34.91
2022-08-03T14:09:43.608Z,36.17
2022-08-03T14:14:46.353Z,36.99
2022-08-03T14:19:53.045Z,34.50
2022-08-03T14:24:56.549Z,34.84
2022-08-03T14:30:01.389Z,36.13
2022-08-03T14:35:06.570Z,36.54
2022-08-03T14:40:09.970Z,35.18
2022-08-03T14:45:20.506Z,35.18
2022-08-03T14:50:31.739Z,34.05
2022-08-03T14:55:49.999Z,34.45
2022-08-03T15:00:55.080Z,35.41
2022-08-03T15:05:59.229Z,34.76
2022-08-03T15:11:02.038Z,35.28
2022-08-03T15:16:08.710Z,36.55
2022-08-03T15:21:16.661Z,34.99
2022-08-03T15:26:41.038Z,34.69
2022-08-03T15:31:44.539Z,34.32
2022-08-03T15:36:48.714Z,35.86
2022-08-03T15:41:51.605Z,35.49
2022-08-03T15:46:54.662Z,35.85
2022-08-03T15:51:59.227Z,35.14
2022-08-03T15:57:01.998Z,36.63
2022-08-03T16:02:05.118Z,36.23
2022-08-03T16:07:12.818Z,35.65
2022-08-03T16:12:16.859Z,34.56
2022-08-03T16:17:20.192Z,33.63
2022-08-03T16:22:24.841Z,33.40
2022-08-03T16:27:58.098Z,32.65
2022-08-03T16:32:51.237Z,33.35
2022-08-03T16:37:56.455Z,34.82
2022-08-03T16:43:00.067Z,35.24
2022-08-03T16:48:05.746Z,34.69
2022-08-03T16:53:12.829Z,35.60
2022-08-03T16:58:24.497Z,35.33
2022-08-03T17:04:01.369Z,33.96
2022-08-03T17:09:09.867Z,36.18
2022-08-03T17:14:14.650Z,37.01
2022-08-03T17:19:19.120Z,37.46
2022-08-03T17:24:28.301Z,38.47
2022-08-03T17:29:34.953Z,41.15
2022-08-03T17:34:39.495Z,39.67
2022-08-03T17:40:00.058Z,40.65
2022-08-03T17:45:03.887Z,39.60
2022-08-03T17:50:25.230Z,39.63
2022-08-03T17:55:55.893Z,39.75
2022-08-03T18:01:58.286Z,37.71
2022-08-03T18:12:07.586Z,34.41
2022-08-03T18:17:19.144Z,32.83
2022-08-03T18:22:25.204Z,31.88
2022-08-03T18:33:01.089Z,30.93
2022-08-03T18:38:19.362Z,30.72
2022-08-03T18:43:45.334Z,30.39
2022-08-03T18:48:57.751Z,30.12
2022-08-03T18:54:08.733Z,30.01
2022-08-03T19:05:02.887Z,29.53
2022-08-03T19:10:09.277Z,29.43
2022-08-03T19:15:15.699Z,29.09
2022-08-03T19:20:22.519Z,28.91
2022-08-03T19:25:34.600Z,28.82
2022-08-03T19:30:40.687Z,28.58
2022-08-03T19:35:55.622Z,28.51
2022-08-03T19:41:03.214Z,28.32
2022-08-03T19:46:13.333Z,28.33
2022-08-03T19:51:26.986Z,28.23
2022-08-03T19:56:47.528Z,28.14
2022-08-03T20:01:51.230Z,28.07
2022-08-03T20:06:58.673Z,27.99
2022-08-03T20:12:01.765Z,27.84
2022-08-03T20:17:09.305Z,27.74
2022-08-03T20:22:17.957Z,27.64
2022-08-03T20:27:22.178Z,27.40
2022-08-03T20:32:34.249Z,27.42
2022-08-03T20:37:38.530Z,27.16
2022-08-03T20:42:44.634Z,26.68
2022-08-03T20:47:50.590Z,26.31
2022-08-03T20:53:12.483Z,26.09
2022-08-03T20:58:15.630Z,25.90
2022-08-03T21:03:19.521Z,25.63
2022-08-03T21:08:27.797Z,25.21
2022-08-03T21:12:56.701Z,36.45
2022-08-03T21:12:58.033Z,31.31
2022-08-03T21:13:39.247Z,25.41
2022-08-03T21:18:47.194Z,25.73
2022-08-03T21:23:54.959Z,25.77
2022-08-03T21:28:58.039Z,25.57
2022-08-03T21:34:03.911Z,25.62
2022-08-03T21:39:09.950Z,25.68
2022-08-03T21:44:12.937Z,25.58
2022-08-03T21:50:05.893Z,25.59
2022-08-03T21:54:43.889Z,25.53
2022-08-03T21:59:52.965Z,25.42
2022-08-03T22:04:58.027Z,25.32
2022-08-03T22:10:05.461Z,25.36
2022-08-03T22:15:11.029Z,25.35
2022-08-03T22:20:15.273Z,25.27
2022-08-03T22:25:22.182Z,24.91
2022-08-03T22:30:25.065Z,24.77
2022-08-03T22:35:28.425Z,24.70
2022-08-03T22:40:32.826Z,24.69
2022-08-03T22:45:45.832Z,24.58
2022-08-03T22:51:00.577Z,24.46
2022-08-03T22:56:05.270Z,24.28
2022-08-03T23:01:09.871Z,23.90
2022-08-03T23:06:12.932Z,23.57
2022-08-03T23:11:19.390Z,23.73
2022-08-03T23:16:29.371Z,23.73
2022-08-03T23:21:53.946Z,23.61
2022-08-03T23:26:57.597Z,23.83
2022-08-03T23:32:02.843Z,23.46
2022-08-03T23:37:06.800Z,23.03
2022-08-03T23:42:12.337Z,23.14
2022-08-03T23:47:15.733Z,23.14
2022-08-03T23:52:33.983Z,22.96
2022-08-03T23:57:52.942Z,23.16
